Adapazari, Turkey

10:29 PM EEST on July 22, 2014 (GMT +0300)
Topel Air Base (LTBQ) Elev 164 ft | 40.74 °N, 30.08 °E | Change Station

Current weather conditions updated 39 minutes ago

Clear
Clear
75 °F
Feels Like 75 °F
N
5
Wind Variable Wind from NNE

Tomorrow is forecast to be Warmer than today.

Today
High -- | Low -- °F
--% Chance of Precip.
Yesterday
High -- | Low -- °F
Precip. -- in
5:45 AM 8:23 PM
Waning Crescent, 15% visible
Pressure 29.77 in
Visibility -9999.0 miles
Clouds
Dew Point 70 °F
Humidity 83%
Rainfall 0.00 in
Snow Depth Not available.
UV Not available.
Pollen Not available.
Air Quality Not available.
Flu Activity Not available.
METAR LTBQ 221850Z 03004KT CAVOK 24/21 Q1008 NOSIG

More Conditions Fewer Conditions

Pressure 29.77 in
Visibility -9999.0 miles
Clouds
Dew Point 70 °F
Humidity 83%
Rainfall 0.00 in
Snow Depth Not available.
UV Not available.
Pollen Not available.
Air Quality Not available.
Flu Activity Not available.
METAR LTBQ 221850Z 03004KT CAVOK 24/21 Q1008 NOSIG

More Conditions Fewer Conditions

10-Day Weather Forecast

Almanac

Astronomy

Jul. 22, 2014 Rise Set
Actual Time 5:45 AM EEST 8:23 PM EEST
Civil Twilight 5:13 AM EEST 8:55 PM EEST
Nautical Twilight 4:33 AM EEST 9:34 PM EEST
Astronomical Twilight 3:48 AM EEST 10:19 PM EEST
Moon 2:04 AM EEST 4:43 PM EEST
Length of Visible Light 15h 41m
Length of Day
14h 38m
Tomorrow will be 1m 41s shorter.
Waning Crescent, 15% of the Moon is Illuminated
Today
Waning Crescent
Jul 26
New
Aug 3
First Quarter
Aug 10
Full
Aug 17
Last Quarter

Today's Extremes

Country Highs Country Lows

Community

WunderPhotos

Upload Photos

1,736,338 photos uploaded!

Nearby

Snow Depth

Not available.

Earthquake Activity

City Distance Mag. Time & Date
No recent earthquake activity has been reported nearby.
Minimum magnitude displayed is 2.5.

Coastal Water Temperatures

Place Temperature
No Stations Reporting

Nearby Weather Stations

There are no personal weather stations in this area.